METAR v bližini

 

LIPQ - Ronchi Legionari, Italy
Oddaljenost od postaje: JZ 35km
Podatki zajeti: 21. 05. 2022 14:50
Jasno
Jasno
 Veter iz smeri JZ
Veter: JZ 11 km/h
Temperatura: 28°C
Toplotni indeks: 28°C
Temp. rosišča: 14°C
Vlažnost: 42%
Tlak: 1017 hPa
Oblačnost: Jasno
Vidljivost: 10 km
2022/05/21 12:50 LIPQ 211250Z AUTO 23006KT 180V280 9999 NCD 28/14 Q1017
LIVT - Trieste, Italy
Oddaljenost od postaje: J 49km
Podatki zajeti: 20. 05. 2022 19:55
Ni posodobljen
Jasno
Jasno
 Veter iz smeri calm
Veter: Tišina
Temperatura: 22°C
Temp. rosišča: 15°C
Vlažnost: 65%
Tlak: 1022 hPa
Stanje: Jasno
Vidljivost: večja od 10 km
2022/05/20 17:55 LIVT 201755Z 00000KT CAVOK 22/15 Q1022
 
LIVO - Tarvisio, Italy
Oddaljenost od postaje: SSZ 49km
Podatki zajeti: 20. 05. 2022 19:55
Ni posodobljen
Jasno
Jasno
 Veter iz smeri ZJZ
Veter: ZJZ 7 km/h
Temperatura: 22°C
Temp. rosišča: 14°C
Vlažnost: 61%
Tlak: 1022 hPa
Stanje: Jasno
Vidljivost: večja od 10 km
2022/05/20 17:55 LIVO 201755Z 24004KT CAVOK 22/14 Q1022
LIPI - Rivolto (it-Afb), Italy
Oddaljenost od postaje: ZJZ 57km
Podatki zajeti: 21. 05. 2022 14:55
Jasno
Jasno
 Veter iz smeri J
Veter: J 7 km/h
Temperatura: 27°C
Temp. rosišča: 11°C
Vlažnost: 37%
Tlak: 1016 hPa
Stanje: Jasno
Vidljivost: večja od 10 km
2022/05/21 12:55 LIPI 211255Z 19004KT CAVOK 27/11 Q1016
 
LJLJ - Ljubljana/Brnik, Slovenia
Oddaljenost od postaje: VSV 59km
Podatki zajeti: 21. 05. 2022 15:00
Delno oblačno
Delno oblačno
 Veter iz smeri JV
Veter: JV 9 km/h
Temperatura: 29°C
Temp. rosišča: 12°C
Vlažnost: 35%
Tlak: 1017 hPa
Oblačnost: Delno oblačno
Vidljivost: 10 km
Podrobnosti o oblakih: Rahlo oblačno 1829 m
Delno oblačno 3962 m
2022/05/21 13:00 LJLJ 211300Z 13005KT 080V170 9999 FEW060 SCT130 29/12 Q1017 NOSIG
LJPZ - Portoroz, Slovenia
Oddaljenost od postaje: J 68km
Podatki zajeti: 21. 05. 2022 15:00
Jasno
Jasno
 Veter iz smeri ZSZ
Veter: ZSZ 9 km/h
Temperatura: 25°C
Temp. rosišča: 18°C
Vlažnost: 65%
Tlak: 1017 hPa
Stanje: Jasno
Vidljivost: večja od 10 km
2022/05/21 13:00 LJPZ 211300Z 30005KT 260V330 CAVOK 25/18 Q1017
 
LOWK - Klagenfurt(Civ/M, Austria
Oddaljenost od postaje: SV 78km
Podatki zajeti: 21. 05. 2022 14:50
Rahlo oblačno
Rahlo oblačno
 Veter iz smeri S
Veter: S 7 km/h
Temperatura: 27°C
Toplotni indeks: 27°C
Temp. rosišča: 13°C
Vlažnost: 42%
Tlak: 1017 hPa
Oblačnost: Rahlo oblačno
Vidljivost: 10 km
Podrobnosti o oblakih: Rahlo oblačno 1981 m
Rahlo oblačno 1981 m
2022/05/21 12:50 LOWK 211250Z 36004KT 320V040 9999 FEW065 FEW065TCU 27/13 Q1017 NOSIG
LIPA - Aviano (it/Us-Af, Italy
Oddaljenost od postaje: Z 89km
Podatki zajeti: 20. 05. 2022 21:55
Ni posodobljen
Jasno
Jasno
 Veter iz smeri spremenljiv
Veter: spremenljiv 0 km/h
Temperatura: 20°C
Temp. rosišča: 10°C
Vlažnost: 53%
Tlak: 1021 hPa
Stanje: Jasno
Vidljivost: večja od 10 km
2022/05/20 19:55 LIPA 201955Z /////KT CAVOK 20/10 Q1021
 
LDRI - Rijeka/Omisalj, Croatia
Oddaljenost od postaje: JV 115km
Podatki zajeti: 21. 05. 2022 15:00
Rahlo oblačno
Rahlo oblačno
 Veter iz smeri Z
Veter: Z 9 km/h
Temperatura: 27°C
Temp. rosišča: 9°C
Vlažnost: 32%
Tlak: 1017 hPa
Oblačnost: Rahlo oblačno
Vidljivost: 10 km
Podrobnosti o oblakih: Rahlo oblačno 1219 m
2022/05/21 13:00 LDRI 211300Z 27005KT 250V320 9999 FEW040 27/09 Q1017
LIPZ - Venezia/Tessera, Italy
Oddaljenost od postaje: ZJZ 127km
Podatki zajeti: 21. 05. 2022 14:50
Jasno
Jasno
 Veter iz smeri J
Veter: J 9 km/h
Temperatura: 25°C
Temp. rosišča: 14°C
Vlažnost: 51%
Tlak: 1017 hPa
Stanje: Jasno
Vidljivost: večja od 10 km
2022/05/21 12:50 LIPZ 211250Z 17005KT 130V200 CAVOK 25/14 Q1017 NOSIG
 
LDPL - Pula, Croatia
Oddaljenost od postaje: J 133km
Podatki zajeti: 21. 05. 2022 15:00
Jasno
Jasno
 Veter iz smeri ZJZ
Veter: ZJZ 13 km/h
Temperatura: 26°C
Temp. rosišča: 14°C
Vlažnost: 48%
Tlak: 1017 hPa
Stanje: Jasno
Vidljivost: večja od 10 km
2022/05/21 13:00 LDPL 211300Z 24007KT 190V280 CAVOK 26/14 Q1017 NOSIG
LIPS - Istrana (it-Afb), Italy
Oddaljenost od postaje: ZJZ 136km
Podatki zajeti: 21. 05. 2022 14:55
Jasno
Jasno
 Veter iz smeri spremenljiv
Veter: spremenljiv 0 km/h
Temperatura: 29°C
Toplotni indeks: 29°C
Temp. rosišča: 18°C
Vlažnost: 51%
Tlak: 1017 hPa
Stanje: Jasno
Vidljivost: večja od 10 km
2022/05/21 12:55 LIPS 211255Z /////KT CAVOK 29/18 Q1017
 
LIVD - Dobbiaco, Italy
Oddaljenost od postaje: ZSZ 137km
Podatki zajeti: 20. 05. 2022 19:55
Ni posodobljen
Jasno
Jasno
 Veter iz smeri spremenljiv
Veter: spremenljiv 0 km/h
Temperatura: 21°C
Temp. rosišča: 9°C
Vlažnost: 46%
Tlak: 1024 hPa
Stanje: Jasno
Vidljivost: večja od 10 km
2022/05/20 17:55 LIVD 201755Z /////KT CAVOK 21/09 Q1024
LJCE - Cerklje, Slovenia
Oddaljenost od postaje: V 139km
Podatki zajeti: 21. 05. 2022 15:00
Jasno
Jasno
 Veter iz smeri J
Veter: J 9 km/h
Temperatura: 30°C
Temp. rosišča: 13°C
Vlažnost: 35%
Tlak: 1016 hPa
Stanje: Jasno
Vidljivost: večja od 10 km
2022/05/21 13:00 LJCE 211300Z 17005KT 110V210 CAVOK 30/13 Q1016 RMK BLU
 
LOXZ - Zeltweg (mil), Austria
Oddaljenost od postaje: SSV 147km
Podatki zajeti: 21. 05. 2022 14:50
Pretežno oblačno
Pretežno oblačno
 Veter iz smeri ZSZ
Veter: ZSZ 20 km/h
Temperatura: 25°C
Temp. rosišča: 9°C
Vlažnost: 36%
Tlak: 1019 hPa
Oblačnost: Pretežno oblačno
Vidljivost: 10 km
Podrobnosti o oblakih: Rahlo oblačno 1829 m
Pretežno oblačno 2286 m
2022/05/21 12:50 LOXZ 211250Z 29011KT 9999 FEW060 BKN075 25/09 Q1019 NOSIG
sucontract_SNC